Time;durP1;ratioP1;P1;durP2;ratioP2;P2;SDS_P1;SDS_P2;PMS_P1;PMS_P2;Temp;Humidity;BMP_temperature;BMP_pressure;BME280_temperature;BME280_humidity;BME280_pressure;Samples;Min_cycle;Max_cycle;Signal;HPM_P1;HPM_P2
2021/04/06 00:00:37;;;;;;;6.73;4.27;;;;;0.60;101225.00;;;;9655881;30;20215;-76
2021/04/06 00:05:40;;;;;;;6.53;2.87;;;;;0.40;101225.00;;;;9669160;30;20200;-76
2021/04/06 00:10:48;;;;;;;7.43;2.53;;;;;0.50;101230.00;;;;9689253;30;20681;-76
2021/04/06 00:15:50;;;;;;;8.83;2.70;;;;;0.40;101224.00;;;;9676240;30;20265;-75
2021/04/06 00:20:55;;;;;;;7.73;3.40;;;;;0.40;101220.00;;;;9675398;30;20211;-75
2021/04/06 00:25:57;;;;;;;7.30;2.93;;;;;0.40;101203.00;;;;9689421;30;20270;-75
2021/04/06 00:31:01;;;;;;;11.30;3.20;;;;;0.50;101210.00;;;;9703994;30;20620;-76
2021/04/06 00:36:03;;;;;;;15.20;5.43;;;;;0.60;101196.00;;;;9671110;30;20239;-76
2021/04/06 00:41:09;;;;;;;12.10;3.17;;;;;0.70;101193.00;;;;9654327;30;20204;-76
2021/04/06 00:46:21;;;;;;;11.33;2.57;;;;;0.80;101180.00;;;;9657939;30;20215;-76
2021/04/06 00:51:38;;;;;;;10.47;2.97;;;;;0.70;101180.00;;;;9689613;30;20234;-76
2021/04/06 00:56:43;;;;;;;9.60;2.53;;;;;0.70;101175.00;;;;9688860;30;20219;-76
2021/04/06 01:01:47;;;;;;;8.00;2.83;;;;;0.70;101170.00;;;;9688663;30;20665;-76
2021/04/06 01:07:27;;;;;;;9.00;3.03;;;;;0.70;101182.00;;;;9694931;30;20238;-76
2021/04/06 01:12:29;;;;;;;8.07;2.43;;;;;0.80;101188.00;;;;9573124;30;20248;-76
2021/04/06 01:17:33;;;;;;;7.43;1.73;;;;;0.80;101172.00;;;;9650239;30;20255;-76
2021/04/06 01:22:36;;;;;;;8.93;2.07;;;;;0.70;101162.00;;;;9694939;30;20291;-77
2021/04/06 01:27:37;;;;;;;9.27;2.10;;;;;0.70;101160.00;;;;9694731;30;20290;-76
2021/04/06 01:32:39;;;;;;;8.67;1.70;;;;;0.60;101163.00;;;;9695634;30;20211;-76
2021/04/06 01:37:41;;;;;;;4.03;1.70;;;;;0.50;101159.00;;;;9694398;30;20215;-76
2021/04/06 01:42:42;;;;;;;8.37;2.50;;;;;0.60;101146.00;;;;9680692;30;20223;-77
2021/04/06 01:47:44;;;;;;;5.90;2.07;;;;;0.60;101150.00;;;;9694104;30;20208;-76
2021/04/06 01:52:48;;;;;;;9.43;2.63;;;;;0.60;101151.00;;;;9680966;30;20239;-77
2021/04/06 01:57:51;;;;;;;9.57;2.37;;;;;0.70;101154.00;;;;9694280;30;20279;-76
2021/04/06 02:02:57;;;;;;;11.30;3.00;;;;;0.80;101143.00;;;;9693771;30;20577;-76
2021/04/06 02:08:07;;;;;;;13.83;3.63;;;;;0.90;101120.00;;;;9664928;30;20224;-76
2021/04/06 02:13:14;;;;;;;15.37;3.47;;;;;1.00;101104.00;;;;9673118;30;20228;-77
2021/04/06 02:18:21;;;;;;;13.23;2.97;;;;;0.90;101102.00;;;;9686536;30;20251;-77
2021/04/06 02:23:23;;;;;;;12.23;3.27;;;;;0.80;101101.00;;;;9708026;30;20196;-76
2021/04/06 02:28:25;;;;;;;10.90;3.40;;;;;0.80;101107.00;;;;9693376;30;20278;-77
2021/04/06 02:33:29;;;;;;;12.53;3.03;;;;;0.90;101126.00;;;;9707769;30;20223;-77
2021/04/06 02:38:49;;;;;;;13.50;4.63;;;;;1.00;101131.00;;;;9692824;30;20620;-77
2021/04/06 02:43:51;;;;;;;14.60;2.97;;;;;1.00;101140.00;;;;9692922;30;20258;-77
2021/04/06 02:48:54;;;;;;;10.87;3.10;;;;;0.80;101128.00;;;;9692623;30;20235;-77
2021/04/06 02:53:56;;;;;;;11.50;2.53;;;;;0.70;101127.00;;;;9707342;30;20208;-77
2021/04/06 02:59:20;;;;;;;13.83;2.70;;;;;0.80;101128.00;;;;9693208;30;20223;-77
2021/04/06 03:04:24;;;;;;;14.53;2.97;;;;;0.80;101129.00;;;;9656961;30;20208;-77
2021/04/06 03:09:26;;;;;;;14.33;3.90;;;;;0.80;101116.00;;;;9657646;30;20239;-77
2021/04/06 03:14:28;;;;;;;8.33;2.53;;;;;0.70;101109.00;;;;9665296;30;20203;-77
2021/04/06 03:19:30;;;;;;;13.20;3.20;;;;;0.80;101110.00;;;;9692265;30;20226;-77
2021/04/06 03:24:33;;;;;;;15.27;3.50;;;;;0.80;101109.00;;;;9691948;30;20739;-77
2021/04/06 03:29:34;;;;;;;13.70;2.97;;;;;0.70;101090.00;;;;9676217;30;20204;-77
2021/04/06 03:34:40;;;;;;;12.20;3.33;;;;;0.70;101072.00;;;;9691578;30;20219;-77
2021/04/06 03:39:42;;;;;;;13.90;2.73;;;;;0.70;101075.00;;;;9668911;30;20259;-77
2021/04/06 03:44:43;;;;;;;10.50;2.97;;;;;0.70;101068.00;;;;9686941;30;20219;-77
2021/04/06 03:49:48;;;;;;;10.37;2.90;;;;;0.70;101074.00;;;;9690587;30;20551;-77
2021/04/06 03:54:51;;;;;;;13.47;3.57;;;;;0.70;101077.00;;;;9677302;30;20214;-77
2021/04/06 03:59:53;;;;;;;14.67;3.17;;;;;0.70;101080.00;;;;9689258;30;20291;-77
2021/04/06 04:04:56;;;;;;;13.87;3.30;;;;;0.80;101086.00;;;;9690459;30;20195;-77
2021/04/06 04:09:57;;;;;;;9.93;2.20;;;;;0.80;101086.00;;;;9689160;30;20223;-77
2021/04/06 04:14:59;;;;;;;10.97;1.90;;;;;0.90;101092.00;;;;9675268;30;20219;-77
2021/04/06 04:20:07;;;;;;;4.20;2.57;;;;;0.90;101104.00;;;;9704155;30;20278;-77
2021/04/06 04:25:11;;;;;;;4.97;1.80;;;;;0.80;101112.00;;;;9703397;30;20652;-77
2021/04/06 04:30:14;;;;;;;8.53;1.83;;;;;0.80;101131.00;;;;9654157;30;20731;-77
2021/04/06 04:35:15;;;;;;;6.90;2.30;;;;;0.70;101130.00;;;;9689009;30;20223;-77
2021/04/06 04:40:17;;;;;;;10.40;2.83;;;;;0.50;101120.00;;;;9667511;30;20235;-77
2021/04/06 04:45:19;;;;;;;8.60;2.10;;;;;0.50;101118.00;;;;9675363;30;20853;-77
2021/04/06 04:50:22;;;;;;;11.00;2.60;;;;;0.40;101113.00;;;;9673911;30;20243;-77
2021/04/06 04:55:24;;;;;;;10.83;2.20;;;;;0.40;101106.00;;;;9673444;30;20232;-77
2021/04/06 05:00:28;;;;;;;8.23;2.50;;;;;0.30;101107.00;;;;9661142;30;20217;-77
2021/04/06 05:05:30;;;;;;;10.70;3.17;;;;;0.30;101105.00;;;;9690317;30;20612;-77
2021/04/06 05:10:32;;;;;;;13.13;5.67;;;;;0.30;101092.00;;;;9689582;30;20215;-77
2021/04/06 05:15:33;;;;;;;17.57;6.10;;;;;0.30;101096.00;;;;9676296;30;20227;-77
2021/04/06 05:20:35;;;;;;;10.53;2.60;;;;;0.30;101102.00;;;;9670288;30;20211;-78
2021/04/06 05:25:36;;;;;;;5.80;2.33;;;;;0.40;101105.00;;;;9670273;30;20224;-77
2021/04/06 05:30:40;;;;;;;9.20;2.00;;;;;0.40;101106.00;;;;9642773;30;20205;-78
2021/04/06 05:35:43;;;;;;;12.87;5.13;;;;;0.50;101105.00;;;;9684929;30;20228;-78
2021/04/06 05:40:44;;;;;;;10.83;2.43;;;;;0.50;101111.00;;;;9699919;30;20274;-78
2021/04/06 05:45:51;;;;;;;10.73;2.97;;;;;0.70;101114.00;;;;9664993;30;20204;-78
2021/04/06 05:50:53;;;;;;;12.57;2.67;;;;;0.90;101120.00;;;;9651828;30;20207;-78
2021/04/06 05:55:58;;;;;;;7.87;2.53;;;;;0.90;101133.00;;;;9685823;30;20224;-78
2021/04/06 06:01:01;;;;;;;14.67;2.37;;;;;1.10;101130.00;;;;9685209;30;20613;-78
2021/04/06 06:06:03;;;;;;;7.93;2.10;;;;;1.60;101139.00;;;;9669988;30;20235;-78
2021/04/06 06:11:06;;;;;;;8.57;2.20;;;;;1.80;101130.00;;;;9680262;30;20204;-78
2021/04/06 06:16:12;;;;;;;5.63;1.90;;;;;2.00;101128.00;;;;9670335;30;20698;-78
2021/04/06 06:21:19;;;;;;;9.10;2.30;;;;;2.60;101123.00;;;;9693720;30;20215;-78
2021/04/06 06:26:20;;;;;;;6.70;2.40;;;;;3.10;101134.00;;;;9684253;30;20314;-78
2021/04/06 06:31:35;;;;;;;9.53;2.53;;;;;2.90;101129.00;;;;9659252;30;20203;-78
2021/04/06 06:36:37;;;;;;;6.90;2.00;;;;;2.70;101138.00;;;;9684966;30;20231;-78
2021/04/06 06:41:38;;;;;;;9.63;2.23;;;;;3.30;101137.00;;;;9697302;30;20203;-77
2021/04/06 06:46:40;;;;;;;5.90;2.30;;;;;3.90;101141.00;;;;9651182;30;20196;-78
2021/04/06 06:51:58;;;;;;;11.73;2.40;;;;;3.50;101140.00;;;;9682925;30;20219;-78
2021/04/06 06:57:06;;;;;;;8.60;2.13;;;;;3.80;101150.00;;;;9675339;30;20220;-78
2021/04/06 07:02:28;;;;;;;6.63;2.00;;;;;3.80;101144.00;;;;9684346;30;20204;-79
2021/04/06 07:07:30;;;;;;;6.40;1.63;;;;;3.90;101150.00;;;;9685673;30;20211;-78
2021/04/06 07:12:32;;;;;;;4.43;1.50;;;;;4.40;101159.00;;;;9711117;30;20262;-78
2021/04/06 07:17:34;;;;;;;3.67;1.47;;;;;4.40;101164.00;;;;9663663;30;20223;-78
2021/04/06 07:22:36;;;;;;;5.40;1.60;;;;;4.30;101148.00;;;;9695394;30;20224;-78
2021/04/06 07:27:41;;;;;;;5.03;1.63;;;;;4.30;101152.00;;;;9691232;30;20234;-79
2021/04/06 07:32:43;;;;;;;6.93;1.67;;;;;3.90;101156.00;;;;9695218;30;20270;-78
2021/04/06 07:37:45;;;;;;;6.63;1.57;;;;;4.30;101154.00;;;;9691103;30;20581;-79
2021/04/06 07:42:47;;;;;;;7.33;1.13;;;;;4.70;101154.00;;;;9706661;30;20199;-79
2021/04/06 07:47:50;;;;;;;7.70;2.30;;;;;5.30;101157.00;;;;9695310;30;20207;-78
2021/04/06 07:53:21;;;;;;;4.93;1.37;;;;;6.60;101149.00;;;;9681189;30;20285;-79
2021/04/06 07:58:58;;;;;;;6.10;1.50;;;;;5.90;101164.00;;;;9693806;30;20274;-78
2021/04/06 08:04:05;;;;;;;6.17;1.47;;;;;4.80;101167.00;;;;9632870;30;20274;-77
2021/04/06 08:09:43;;;;;;;3.07;0.83;;;;;3.90;101165.00;;;;9684385;30;20207;-77
2021/04/06 08:14:48;;;;;;;2.17;0.90;;;;;3.90;101155.00;;;;9679943;30;20297;-77
2021/04/06 08:19:58;;;;;;;2.83;1.20;;;;;3.90;101187.00;;;;9699593;30;20282;-78
2021/04/06 08:25:18;;;;;;;1.20;0.73;;;;;2.10;101164.00;;;;9667450;30;20326;-79
2021/04/06 08:30:24;;;;;;;1.80;0.70;;;;;1.60;101183.00;;;;9678945;30;20604;-79
2021/04/06 08:35:49;;;;;;;2.97;0.73;;;;;1.80;101154.00;;;;9692960;30;20593;-79
2021/04/06 08:40:56;;;;;;;2.20;0.80;;;;;2.10;101164.00;;;;9687042;30;20661;-79
2021/04/06 08:46:23;;;;;;;3.67;0.83;;;;;3.00;101160.00;;;;9686151;30;20254;-78
2021/04/06 08:51:30;;;;;;;2.87;0.90;;;;;4.30;101161.00;;;;9680771;30;20281;-78
2021/04/06 08:56:36;;;;;;;3.87;0.90;;;;;5.40;101164.00;;;;9680026;30;20689;-77
2021/04/06 09:01:38;;;;;;;1.70;0.90;;;;;5.80;101157.00;;;;9685826;30;20713;-78
2021/04/06 09:06:40;;;;;;;2.27;0.90;;;;;5.90;101176.00;;;;9683377;30;20227;-78
2021/04/06 09:11:43;;;;;;;2.77;1.20;;;;;6.30;101168.00;;;;9694362;30;20257;-78
2021/04/06 09:16:44;;;;;;;5.17;1.50;;;;;7.20;101149.00;;;;9663915;30;20223;-78
2021/04/06 09:21:52;;;;;;;6.23;1.50;;;;;7.50;101147.00;;;;9681313;30;20237;-77
2021/04/06 09:26:56;;;;;;;2.20;1.43;;;;;8.20;101146.00;;;;9699711;30;20242;-79
2021/04/06 09:32:04;;;;;;;6.77;2.07;;;;;8.70;101143.00;;;;9708570;30;20704;-77
2021/04/06 09:37:13;;;;;;;9.70;1.97;;;;;9.40;101121.00;;;;9684916;30;20228;-77
2021/04/06 09:42:14;;;;;;;5.60;2.20;;;;;10.00;101121.00;;;;9685438;30;20665;-76
2021/04/06 09:47:23;;;;;;;5.53;2.00;;;;;9.40;101128.00;;;;9687920;30;20239;-76
2021/04/06 09:52:27;;;;;;;2.70;0.90;;;;;7.00;101158.00;;;;9683558;30;20208;-76
2021/04/06 09:57:39;;;;;;;3.40;0.70;;;;;3.40;101187.00;;;;9708144;30;20227;-77
2021/04/06 10:02:42;;;;;;;1.73;0.90;;;;;1.70;101195.00;;;;9681980;30;20199;-77
2021/04/06 10:07:46;;;;;;;1.17;0.40;;;;;1.10;101190.00;;;;9689122;30;20208;-78
2021/04/06 10:12:48;;;;;;;2.93;0.70;;;;;0.90;101164.00;;;;9694629;30;20243;-78
2021/04/06 10:17:51;;;;;;;1.40;0.60;;;;;1.00;101136.00;;;;9675873;30;20220;-79
2021/04/06 10:22:57;;;;;;;4.87;1.13;;;;;1.50;101141.00;;;;9677733;30;20239;-79
2021/04/06 10:28:01;;;;;;;2.47;1.00;;;;;1.90;101133.00;;;;9669561;30;20240;-79
2021/04/06 10:33:04;;;;;;;3.10;1.20;;;;;2.20;101125.00;;;;9674633;30;20224;-78
2021/04/06 10:38:16;;;;;;;4.07;1.40;;;;;3.80;101129.00;;;;9690233;30;20231;-78
2021/04/06 10:43:21;;;;;;;2.13;1.07;;;;;5.70;101135.00;;;;9688506;30;20208;-76
2021/04/06 10:48:24;;;;;;;3.10;0.93;;;;;5.90;101129.00;;;;9688103;30;20338;-75
2021/04/06 10:54:09;;;;;;;1.37;0.90;;;;;5.70;101138.00;;;;9702038;30;20715;-75
2021/04/06 10:59:13;;;;;;;6.27;1.50;;;;;4.30;101129.00;;;;9617089;30;20225;-76
2021/04/06 11:04:15;;;;;;;4.33;1.40;;;;;4.30;101124.00;;;;9686876;30;20708;-77
2021/04/06 11:09:23;;;;;;;4.13;1.07;;;;;5.10;101090.00;;;;9701366;30;20204;-78
2021/04/06 11:14:27;;;;;;;3.57;1.00;;;;;5.30;101100.00;;;;9667941;30;20685;-80
2021/04/06 11:19:31;;;;;;;5.73;1.47;;;;;6.70;101085.00;;;;9682097;30;20223;-78
2021/04/06 11:24:33;;;;;;;5.37;1.33;;;;;7.70;101084.00;;;;9671927;30;20693;-78
2021/04/06 11:29:37;;;;;;;4.57;1.40;;;;;6.80;101070.00;;;;9689779;30;20204;-79
2021/04/06 11:34:40;;;;;;;5.80;1.97;;;;;6.50;101080.00;;;;9701162;30;20227;-79
2021/04/06 11:39:45;;;;;;;4.13;1.17;;;;;4.60;101095.00;;;;9683722;30;20221;-78
2021/04/06 11:44:46;;;;;;;5.17;1.80;;;;;3.70;101112.00;;;;9682669;30;20196;-79
2021/04/06 11:49:48;;;;;;;3.90;1.57;;;;;2.60;101114.00;;;;9695683;30;20212;-79
2021/04/06 11:54:50;;;;;;;3.97;1.67;;;;;3.40;101064.00;;;;9655680;30;20593;-79
2021/04/06 11:59:52;;;;;;;3.10;1.90;;;;;4.50;101064.00;;;;9682315;30;20270;-79
2021/04/06 12:04:54;;;;;;;5.00;1.80;;;;;4.90;101052.00;;;;9687020;30;20234;-79
2021/04/06 12:09:58;;;;;;;5.17;2.10;;;;;7.00;101046.00;;;;9689321;30;20252;-77
2021/04/06 12:14:59;;;;;;;2.97;1.60;;;;;7.90;101063.00;;;;9645313;30;20209;-77
2021/04/06 12:20:03;;;;;;;2.90;1.40;;;;;4.40;101087.00;;;;9659811;30;20223;-78
2021/04/06 12:25:05;;;;;;;3.77;1.10;;;;;2.10;101090.00;;;;9707103;30;20228;-79
2021/04/06 12:30:08;;;;;;;2.53;0.80;;;;;2.00;101068.00;;;;9667875;30;20208;-80
2021/04/06 12:35:10;;;;;;;4.10;1.50;;;;;2.70;101082.00;;;;9686999;30;20243;-78
2021/04/06 12:40:12;;;;;;;1.80;0.80;;;;;2.90;101063.00;;;;9701757;30;20227;-78
2021/04/06 12:45:15;;;;;;;5.23;1.50;;;;;3.50;101071.00;;;;9662041;30;20211;-77
2021/04/06 12:50:17;;;;;;;7.87;1.83;;;;;4.70;101070.00;;;;9653973;30;20658;-77
2021/04/06 12:55:18;;;;;;;2.00;1.33;;;;;4.50;101073.00;;;;9686385;30;20207;-77
2021/04/06 13:00:21;;;;;;;5.53;2.77;;;;;4.00;101061.00;;;;9678416;30;20304;-77
2021/04/06 13:05:22;;;;;;;5.53;2.53;;;;;4.60;101063.00;;;;9668416;30;20220;-76
2021/04/06 13:10:25;;;;;;;5.93;2.30;;;;;3.70;101071.00;;;;9677115;30;20213;-77
2021/04/06 13:15:27;;;;;;;5.57;2.40;;;;;3.00;101070.00;;;;9677257;30;20207;-77
2021/04/06 13:20:30;;;;;;;2.33;1.30;;;;;2.00;101048.00;;;;9678020;30;20247;-77
2021/04/06 13:25:33;;;;;;;1.27;1.00;;;;;1.40;101054.00;;;;9693009;30;21020;-78
2021/04/06 13:30:35;;;;;;;3.13;1.30;;;;;2.00;101054.00;;;;9699187;30;20218;-79
2021/04/06 13:35:40;;;;;;;4.53;1.83;;;;;3.10;101050.00;;;;9684792;30;20212;-78
2021/04/06 13:40:41;;;;;;;4.77;1.83;;;;;3.70;101043.00;;;;9670156;30;20959;-78
2021/04/06 13:45:43;;;;;;;7.03;2.57;;;;;4.60;101030.00;;;;9686166;30;20720;-77
2021/04/06 13:50:45;;;;;;;3.73;1.87;;;;;5.00;101035.00;;;;9688265;30;20644;-77
2021/04/06 13:55:47;;;;;;;6.23;2.40;;;;;4.70;101051.00;;;;9677883;30;20231;-77
2021/04/06 14:00:49;;;;;;;4.57;2.00;;;;;6.50;101033.00;;;;9678796;30;20206;-77
2021/04/06 14:05:52;;;;;;;5.97;2.67;;;;;10.80;101019.00;;;;9689395;30;20287;-77
2021/04/06 14:10:54;;;;;;;3.27;1.97;;;;;8.50;101029.00;;;;9671885;30;20204;-77
2021/04/06 14:15:55;;;;;;;4.03;1.90;;;;;3.80;101061.00;;;;9675882;30;20224;-78
2021/04/06 14:20:57;;;;;;;6.03;2.47;;;;;2.00;101044.00;;;;9708650;30;20218;-78
2021/04/06 14:26:01;;;;;;;4.37;3.23;;;;;2.60;101044.00;;;;9706573;30;20223;-77
2021/04/06 14:31:04;;;;;;;3.63;2.53;;;;;3.40;101038.00;;;;9686301;30;20239;-78
2021/04/06 14:36:10;;;;;;;3.67;1.83;;;;;3.90;101037.00;;;;9666173;30;20232;-78
2021/04/06 14:41:11;;;;;;;6.63;2.83;;;;;4.10;101046.00;;;;9682816;30;20212;-77
2021/04/06 14:46:14;;;;;;;8.20;2.70;;;;;4.10;101037.00;;;;9672738;30;20204;-77
2021/04/06 14:51:22;;;;;;;4.60;1.90;;;;;4.10;101028.00;;;;9701545;30;20207;-77
2021/04/06 14:56:24;;;;;;;2.97;1.50;;;;;3.90;101029.00;;;;9682477;30;20286;-77
2021/04/06 15:01:27;;;;;;;2.07;1.80;;;;;4.20;101028.00;;;;9689287;30;20208;-77
2021/04/06 15:06:31;;;;;;;5.30;2.23;;;;;4.70;101029.00;;;;9688608;30;20200;-77
2021/04/06 15:11:34;;;;;;;3.83;1.57;;;;;5.90;101013.00;;;;9701877;30;20220;-77
2021/04/06 15:16:35;;;;;;;4.07;1.53;;;;;8.70;101017.00;;;;9682766;30;20230;-77
2021/04/06 15:21:52;;;;;;;8.00;2.60;;;;;7.60;101009.00;;;;9678324;30;20207;-77
2021/04/06 15:26:54;;;;;;;5.17;3.03;;;;;6.60;101006.00;;;;9682609;30;21023;-76
2021/04/06 15:31:57;;;;;;;5.77;3.07;;;;;6.00;101016.00;;;;9675176;30;20208;-77
2021/04/06 15:36:59;;;;;;;6.73;2.90;;;;;5.70;101020.00;;;;9670967;30;20228;-77
2021/04/06 15:42:06;;;;;;;3.50;2.53;;;;;5.00;101019.00;;;;9660911;30;20214;-77
2021/04/06 15:47:07;;;;;;;13.43;3.87;;;;;4.10;101021.00;;;;9656930;30;20278;-77
2021/04/06 15:52:31;;;;;;;6.53;2.90;;;;;3.50;101030.00;;;;9685709;30;20220;-77
2021/04/06 15:57:33;;;;;;;6.77;3.10;;;;;3.20;101008.00;;;;9695350;30;20291;-77
2021/04/06 16:02:36;;;;;;;7.33;3.37;;;;;2.80;101033.00;;;;9684738;30;20212;-77
2021/04/06 16:07:38;;;;;;;2.67;1.23;;;;;1.90;101046.00;;;;9684628;30;20258;-78
2021/04/06 16:12:40;;;;;;;4.30;1.23;;;;;1.00;101042.00;;;;9680955;30;20204;-78
2021/04/06 16:17:46;;;;;;;5.63;1.47;;;;;0.70;101025.00;;;;9667542;30;20215;-78
2021/04/06 16:22:51;;;;;;;5.20;1.20;;;;;0.70;101015.00;;;;9693337;30;20207;-79
2021/04/06 16:27:53;;;;;;;2.73;1.30;;;;;0.70;101020.00;;;;9672740;30;20274;-79
2021/04/06 16:32:55;;;;;;;3.20;1.47;;;;;0.80;101009.00;;;;9677201;30;587430;-79
2021/04/06 16:37:57;;;;;;;9.00;2.50;;;;;0.90;101013.00;;;;9699468;30;20215;-80
2021/04/06 16:42:58;;;;;;;3.23;1.50;;;;;0.80;101002.00;;;;9678854;30;20222;-79
2021/04/06 16:48:01;;;;;;;4.07;1.53;;;;;0.60;100999.00;;;;9707783;30;20210;-78
2021/04/06 16:53:05;;;;;;;6.90;1.97;;;;;0.70;100995.00;;;;9683423;30;20204;-78
2021/04/06 16:58:07;;;;;;;3.13;2.27;;;;;0.60;100990.00;;;;9687797;30;20235;-78
2021/04/06 17:03:08;;;;;;;3.33;1.80;;;;;0.70;100983.00;;;;9682758;30;20231;-78
2021/04/06 17:08:10;;;;;;;3.23;2.37;;;;;0.90;100977.00;;;;9683793;30;20200;-78
2021/04/06 17:13:11;;;;;;;4.57;2.90;;;;;1.00;100968.00;;;;9675243;30;20214;-77
2021/04/06 17:18:14;;;;;;;5.27;2.53;;;;;1.10;100951.00;;;;9684191;30;20235;-77
2021/04/06 17:23:15;;;;;;;2.70;1.80;;;;;1.00;100959.00;;;;9675168;30;20216;-77
2021/04/06 17:28:17;;;;;;;3.07;1.77;;;;;0.90;100978.00;;;;9652228;30;20278;-77
2021/04/06 17:33:22;;;;;;;4.30;1.50;;;;;0.90;100964.00;;;;9683497;30;20601;-77
2021/04/06 17:38:28;;;;;;;2.13;1.60;;;;;1.00;100970.00;;;;9657890;30;20277;-77
2021/04/06 17:43:30;;;;;;;4.87;1.40;;;;;0.90;100966.00;;;;9649369;30;20220;-77
2021/04/06 17:48:33;;;;;;;4.53;1.40;;;;;0.80;100969.00;;;;9680757;30;20199;-77
2021/04/06 17:53:36;;;;;;;3.23;1.40;;;;;0.70;100966.00;;;;9686451;30;20243;-76
2021/04/06 17:58:37;;;;;;;4.33;3.10;;;;;0.60;100963.00;;;;9678418;30;20723;-76
2021/04/06 18:03:41;;;;;;;8.33;5.17;;;;;0.50;100965.00;;;;9644538;30;20361;-77
2021/04/06 18:08:42;;;;;;;5.00;4.13;;;;;0.40;100961.00;;;;9680332;30;20196;-76
2021/04/06 18:13:45;;;;;;;9.27;5.73;;;;;0.40;100954.00;;;;9701233;30;20212;-76
2021/04/06 18:18:46;;;;;;;6.37;4.10;;;;;0.30;100958.00;;;;9689360;30;20767;-76
2021/04/06 18:23:48;;;;;;;3.60;2.40;;;;;0.30;100946.00;;;;9668898;30;20192;-76
2021/04/06 18:28:49;;;;;;;2.97;2.67;;;;;0.20;100955.00;;;;9693585;30;20747;-76
2021/04/06 18:33:50;;;;;;;7.57;3.67;;;;;0.20;100967.00;;;;9663407;30;20220;-76
2021/04/06 18:38:52;;;;;;;9.27;5.10;;;;;0.20;100970.00;;;;9684081;30;21023;-76
2021/04/06 18:44:11;;;;;;;11.10;5.23;;;;;0.20;100982.00;;;;9694004;30;20238;-76
2021/04/06 18:49:13;;;;;;;11.67;7.47;;;;;0.20;100987.00;;;;9679795;30;20610;-76
2021/04/06 18:54:15;;;;;;;11.27;7.57;;;;;0.20;100987.00;;;;9653753;30;20220;-76
2021/04/06 18:59:17;;;;;;;8.37;6.93;;;;;0.20;100991.00;;;;9676183;30;20224;-75
2021/04/06 19:04:18;;;;;;;12.17;7.07;;;;;0.20;101000.00;;;;9680974;30;20266;-76
2021/04/06 19:09:24;;;;;;;8.70;5.40;;;;;0.20;100995.00;;;;9676187;30;20239;-76
2021/04/06 19:14:43;;;;;;;9.37;6.57;;;;;0.20;100997.00;;;;9679817;30;20216;-76
2021/04/06 19:19:45;;;;;;;7.83;5.60;;;;;0.20;101001.00;;;;9668827;30;20208;-76
2021/04/06 19:24:46;;;;;;;8.00;5.93;;;;;0.20;101002.00;;;;9669274;30;20323;-76
2021/04/06 19:29:48;;;;;;;9.53;6.97;;;;;0.20;101007.00;;;;9679781;30;20208;-76
2021/04/06 19:34:49;;;;;;;7.03;4.50;;;;;0.10;101002.00;;;;9669330;30;20309;-76
2021/04/06 19:39:51;;;;;;;4.33;2.97;;;;;0.20;101000.00;;;;9645256;30;20220;-76
2021/04/06 19:44:54;;;;;;;4.47;3.17;;;;;0.20;100998.00;;;;9664304;30;20228;-75
2021/04/06 19:50:05;;;;;;;3.30;2.40;;;;;0.20;100993.00;;;;9669191;30;20235;-75
2021/04/06 19:55:08;;;;;;;7.60;2.83;;;;;0.10;100996.00;;;;9649977;30;20212;-75
2021/04/06 20:00:20;;;;;;;3.97;2.23;;;;;0.10;101014.00;;;;9669246;30;20232;-75
2021/04/06 20:05:22;;;;;;;4.07;1.10;;;;;0.00;101012.00;;;;9659604;30;20322;-75
2021/04/06 20:10:23;;;;;;;1.67;1.17;;;;;0.00;101027.00;;;;9660065;30;20200;-75
2021/04/06 20:15:28;;;;;;;2.93;1.23;;;;;0.00;101032.00;;;;9667013;30;20208;-75
2021/04/06 20:20:34;;;;;;;2.47;1.20;;;;;0.00;101026.00;;;;9676375;30;20942;-76
2021/04/06 20:25:36;;;;;;;4.27;1.13;;;;;0.10;101028.00;;;;9692536;30;20224;-76
2021/04/06 20:30:49;;;;;;;3.73;1.10;;;;;0.10;101027.00;;;;9657879;30;20755;-76
2021/04/06 20:35:51;;;;;;;4.73;1.10;;;;;0.10;101028.00;;;;9673771;30;20284;-76
2021/04/06 20:40:52;;;;;;;2.40;1.60;;;;;0.10;101033.00;;;;9676487;30;20228;-76
2021/04/06 20:45:54;;;;;;;5.63;1.30;;;;;0.10;101035.00;;;;9680257;30;20208;-76
2021/04/06 20:50:56;;;;;;;4.27;1.20;;;;;0.10;101038.00;;;;9675647;30;20653;-76
2021/04/06 20:55:59;;;;;;;7.70;1.30;;;;;0.10;101034.00;;;;9672072;30;20621;-76
2021/04/06 21:01:05;;;;;;;5.30;1.80;;;;;0.20;101032.00;;;;9656862;30;20206;-76
2021/04/06 21:06:26;;;;;;;4.70;1.40;;;;;0.20;101041.00;;;;9668876;30;20626;-76
2021/04/06 21:11:27;;;;;;;3.53;1.47;;;;;0.20;101038.00;;;;9685880;30;20216;-76
2021/04/06 21:16:29;;;;;;;1.43;1.20;;;;;0.20;101046.00;;;;9681396;30;20723;-76
2021/04/06 21:21:30;;;;;;;6.23;1.83;;;;;0.20;101061.00;;;;9657969;30;20563;-76
2021/04/06 21:26:31;;;;;;;4.43;1.40;;;;;0.20;101052.00;;;;9684268;30;20230;-76
2021/04/06 21:31:33;;;;;;;5.13;1.73;;;;;0.10;101053.00;;;;9696330;30;20214;-76
2021/04/06 21:36:35;;;;;;;4.80;1.83;;;;;0.10;101055.00;;;;9706259;30;20238;-76
2021/04/06 21:41:36;;;;;;;3.10;1.60;;;;;0.00;101056.00;;;;9708288;30;20258;-76
2021/04/06 21:46:37;;;;;;;5.87;2.10;;;;;0.00;101064.00;;;;9694005;30;20204;-76
2021/04/06 21:51:42;;;;;;;6.17;2.57;;;;;0.00;101068.00;;;;9693869;30;20211;-76
2021/04/06 21:56:43;;;;;;;6.03;2.23;;;;;0.00;101072.00;;;;9707885;30;20562;-76
2021/04/06 22:01:44;;;;;;;7.77;2.77;;;;;0.00;101061.00;;;;9679566;30;20624;-76
2021/04/06 22:06:46;;;;;;;4.77;2.47;;;;;0.00;101069.00;;;;9693942;30;20203;-76
2021/04/06 22:11:48;;;;;;;5.53;3.07;;;;;-0.10;101057.00;;;;9679577;30;20210;-76
2021/04/06 22:16:49;;;;;;;10.33;4.00;;;;;-0.10;101065.00;;;;9708644;30;20228;-76
2021/04/06 22:21:51;;;;;;;8.23;3.73;;;;;-0.10;101067.00;;;;9708286;30;20199;-76
2021/04/06 22:27:18;;;;;;;9.63;4.53;;;;;0.00;101076.00;;;;9693850;30;20226;-76
2021/04/06 22:32:26;;;;;;;13.80;4.00;;;;;0.00;101084.00;;;;9692072;30;20211;-76
2021/04/06 22:37:27;;;;;;;17.30;5.03;;;;;0.00;101089.00;;;;9693135;30;20222;-76
2021/04/06 22:42:29;;;;;;;10.47;5.23;;;;;0.00;101070.00;;;;9707583;30;20285;-75
2021/04/06 22:47:32;;;;;;;8.97;3.93;;;;;0.10;101085.00;;;;9707756;30;20200;-76
2021/04/06 22:52:33;;;;;;;9.50;3.27;;;;;0.10;101092.00;;;;9694393;30;20560;-76
2021/04/06 22:57:35;;;;;;;8.83;3.53;;;;;0.10;101096.00;;;;9691921;30;20227;-76
2021/04/06 23:02:38;;;;;;;11.10;3.10;;;;;0.10;101099.00;;;;9692526;30;20207;-76
2021/04/06 23:07:40;;;;;;;8.50;2.37;;;;;0.10;101111.00;;;;9707220;30;20211;-76
2021/04/06 23:12:42;;;;;;;5.77;2.00;;;;;0.00;101109.00;;;;9706634;30;20258;-76
2021/04/06 23:17:49;;;;;;;5.67;1.77;;;;;-0.10;101109.00;;;;9691803;30;20231;-76
2021/04/06 23:22:51;;;;;;;5.23;1.57;;;;;-0.10;101108.00;;;;9706532;30;20239;-76
2021/04/06 23:27:52;;;;;;;4.37;1.37;;;;;-0.20;101113.00;;;;9705407;30;20700;-76
2021/04/06 23:32:54;;;;;;;4.40;1.20;;;;;-0.20;101120.00;;;;9691312;30;20299;-76
2021/04/06 23:37:55;;;;;;;4.67;1.70;;;;;-0.30;101123.00;;;;9705547;30;20767;-77
2021/04/06 23:42:57;;;;;;;8.97;2.00;;;;;-0.30;101125.00;;;;9700036;30;20212;-76
2021/04/06 23:47:59;;;;;;;8.17;2.80;;;;;-0.30;101114.00;;;;9655715;30;20697;-76
2021/04/06 23:53:03;;;;;;;6.80;2.87;;;;;-0.30;101122.00;;;;9669349;30;20733;-76
2021/04/06 23:58:04;;;;;;;20.67;3.93;;;;;-0.30;101118.00;;;;9655122;30;20831;-77
